TSO876 FSIA-FACT
Flight info
| Callsign | TSO876 |
|---|---|
| Flight time | 5h 57m |
| Altitude | 38000 |
| Route | IMPOX DCT OKLAB UM307 AVITO UW19 IXEDA/N0478F400 UW19 VL UG467 TEVAP UZ36 BLV UW95 PVV UZ40 ESRUK UQ51 GETEN GETEN1A |
| Aircraft | B772/H-SDE2E3FGHIJ5LORVWXY/LB1D1 |
Departure
| Time | 2026-05-05 08:35 |
|---|---|
| Airport | Seychelles International Airport (FSIA) |
Arrival
| Time | 2026-05-05 14:32 |
|---|---|
| Airport | Cape Town International Airport (FACT) |
| Time | Latitude | Longitude | Altitude | Speed | Heading |
|---|---|---|---|---|---|
| 2026-05-05 08:16 | -4.66980 | 55.51116 | 25 ft | 0 kts | 215° |
| 2026-05-05 08:28 | -4.66971 | 55.51122 | 25 ft | 2 kts | 215° |
| 2026-05-05 08:28 | -4.66959 | 55.51131 | 25 ft | 2 kts | 215° |
| 2026-05-05 08:28 | -4.66949 | 55.51138 | 25 ft | 0 kts | 215° |
| 2026-05-05 08:28 | -4.66938 | 55.51144 | 25 ft | 2 kts | 190° |
| 2026-05-05 08:29 | -4.66923 | 55.51143 | 25 ft | 2 kts | 157° |
| 2026-05-05 08:29 | -4.66912 | 55.51136 | 25 ft | 1 kts | 128° |
| 2026-05-05 08:29 | -4.66908 | 55.51131 | 25 ft | 0 kts | 125° |
| 2026-05-05 08:32 | -4.66912 | 55.51137 | 25 ft | 3 kts | 125° |
| 2026-05-05 08:33 | -4.66918 | 55.51163 | 25 ft | 4 kts | 66° |
| 2026-05-05 08:33 | -4.66894 | 55.51181 | 25 ft | 4 kts | 9° |
| 2026-05-05 08:33 | -4.66857 | 55.51163 | 25 ft | 7 kts | 315° |
| 2026-05-05 08:33 | -4.66826 | 55.51123 | 24 ft | 7 kts | 304° |
| 2026-05-05 08:34 | -4.66791 | 55.51073 | 25 ft | 9 kts | 305° |
| 2026-05-05 08:34 | -4.66724 | 55.51058 | 24 ft | 11 kts | 20° |
| 2026-05-05 08:34 | -4.66698 | 55.51127 | 24 ft | 12 kts | 108° |
| 2026-05-05 08:34 | -4.66791 | 55.51272 | 26 ft | 52 kts | 126° |
| 2026-05-05 08:35 | -4.67152 | 55.51783 | 27 ft | 122 kts | 124° |
| 2026-05-05 08:35 | -4.67764 | 55.52645 | 122 ft | 166 kts | 126° |
| 2026-05-05 08:35 | -4.68442 | 55.53605 | 722 ft | 171 kts | 124° |
| 2026-05-05 08:35 | -4.69117 | 55.54587 | 1375 ft | 173 kts | 124° |
| 2026-05-05 08:36 | -4.69826 | 55.55602 | 1801 ft | 181 kts | 124° |
| 2026-05-05 08:36 | -4.70525 | 55.56601 | 2603 ft | 175 kts | 124° |
| 2026-05-05 08:36 | -4.71212 | 55.57583 | 3329 ft | 171 kts | 124° |
| 2026-05-05 08:36 | -4.71888 | 55.58549 | 3913 ft | 176 kts | 124° |
| 2026-05-05 08:37 | -4.72616 | 55.59590 | 4480 ft | 186 kts | 124° |
| 2026-05-05 08:37 | -4.73395 | 55.60580 | 5233 ft | 182 kts | 142° |
| 2026-05-05 08:37 | -4.74488 | 55.61169 | 5890 ft | 179 kts | 164° |
| 2026-05-05 08:37 | -4.75715 | 55.61346 | 6447 ft | 180 kts | 185° |
| 2026-05-05 08:38 | -4.76994 | 55.61084 | 6749 ft | 191 kts | 205° |
| 2026-05-05 08:38 | -4.78141 | 55.60330 | 7016 ft | 204 kts | 227° |
| 2026-05-05 08:38 | -4.78953 | 55.59115 | 7266 ft | 218 kts | 250° |
| 2026-05-05 08:38 | -4.79266 | 55.57575 | 7504 ft | 235 kts | 265° |
| 2026-05-05 08:39 | -4.79432 | 55.55866 | 7776 ft | 257 kts | 263° |
| 2026-05-05 08:39 | -4.80051 | 55.54121 | 8001 ft | 280 kts | 236° |
| 2026-05-05 08:39 | -4.81450 | 55.52615 | 8105 ft | 308 kts | 222° |
| 2026-05-05 08:39 | -4.83181 | 55.51179 | 8238 ft | 334 kts | 220° |
| 2026-05-05 08:40 | -4.85053 | 55.49651 | 8430 ft | 356 kts | 220° |
| 2026-05-05 08:40 | -4.87020 | 55.48021 | 8688 ft | 373 kts | 220° |
| 2026-05-05 08:40 | -4.89047 | 55.46330 | 9280 ft | 380 kts | 221° |
| 2026-05-05 08:40 | -4.91113 | 55.44605 | 10084 ft | 380 kts | 220° |
| 2026-05-05 08:41 | -4.93149 | 55.42903 | 10809 ft | 382 kts | 220° |
| 2026-05-05 08:41 | -4.95205 | 55.41184 | 11446 ft | 386 kts | 220° |
| 2026-05-05 08:41 | -4.97283 | 55.39446 | 12094 ft | 390 kts | 220° |
| 2026-05-05 08:41 | -4.99381 | 55.37691 | 12732 ft | 393 kts | 220° |
| 2026-05-05 08:42 | -5.01496 | 55.35921 | 13370 ft | 397 kts | 220° |
| 2026-05-05 08:42 | -5.03628 | 55.34137 | 14005 ft | 400 kts | 220° |
| 2026-05-05 08:42 | -5.05777 | 55.32338 | 14634 ft | 404 kts | 220° |
| 2026-05-05 08:42 | -5.07943 | 55.30520 | 15241 ft | 407 kts | 221° |
| 2026-05-05 08:43 | -5.10012 | 55.28550 | 15823 ft | 412 kts | 226° |
| 2026-05-05 08:43 | -5.11896 | 55.26362 | 16433 ft | 415 kts | 232° |
| 2026-05-05 08:43 | -5.13563 | 55.23987 | 17039 ft | 419 kts | 237° |
| 2026-05-05 08:43 | -5.15081 | 55.21475 | 17619 ft | 422 kts | 239° |
| 2026-05-05 08:44 | -5.16599 | 55.18931 | 18183 ft | 426 kts | 238° |
| 2026-05-05 08:44 | -5.18131 | 55.16369 | 18751 ft | 430 kts | 238° |
| 2026-05-05 08:44 | -5.19677 | 55.13787 | 19296 ft | 433 kts | 238° |
| 2026-05-05 08:44 | -5.21239 | 55.11181 | 19824 ft | 437 kts | 238° |
| 2026-05-05 08:45 | -5.22814 | 55.08555 | 20349 ft | 441 kts | 238° |
| 2026-05-05 08:45 | -5.24403 | 55.05907 | 20884 ft | 444 kts | 238° |
| 2026-05-05 08:45 | -5.26003 | 55.03240 | 21396 ft | 447 kts | 238° |
| 2026-05-05 08:45 | -5.27617 | 55.00550 | 21878 ft | 451 kts | 238° |
| 2026-05-05 08:46 | -5.29242 | 54.97844 | 22368 ft | 455 kts | 238° |
| 2026-05-05 08:46 | -5.30883 | 54.95109 | 22867 ft | 458 kts | 238° |
| 2026-05-05 08:46 | -5.32535 | 54.92357 | 23341 ft | 462 kts | 238° |
| 2026-05-05 08:46 | -5.34203 | 54.89578 | 23806 ft | 466 kts | 238° |
| 2026-05-05 08:47 | -5.35881 | 54.86782 | 24261 ft | 470 kts | 238° |
| 2026-05-05 08:47 | -5.37575 | 54.83959 | 24709 ft | 474 kts | 238° |
| 2026-05-05 08:47 | -5.39282 | 54.81114 | 25134 ft | 478 kts | 238° |
| 2026-05-05 08:47 | -5.41002 | 54.78247 | 25563 ft | 481 kts | 238° |
| 2026-05-05 08:48 | -5.42733 | 54.75360 | 26005 ft | 484 kts | 238° |
| 2026-05-05 08:48 | -5.44477 | 54.72453 | 26409 ft | 488 kts | 238° |
| 2026-05-05 08:48 | -5.46234 | 54.69523 | 26786 ft | 492 kts | 239° |
| 2026-05-05 08:48 | -5.48005 | 54.66570 | 27174 ft | 495 kts | 239° |
| 2026-05-05 08:49 | -5.49786 | 54.63598 | 27586 ft | 498 kts | 239° |
| 2026-05-05 08:49 | -5.51578 | 54.60609 | 27960 ft | 501 kts | 239° |
| 2026-05-05 08:49 | -5.53382 | 54.57600 | 28299 ft | 505 kts | 239° |
| 2026-05-05 08:49 | -5.55196 | 54.54572 | 28668 ft | 507 kts | 239° |
| 2026-05-05 08:50 | -5.57019 | 54.51530 | 29039 ft | 510 kts | 239° |
| 2026-05-05 08:50 | -5.58856 | 54.48463 | 29382 ft | 513 kts | 239° |
| 2026-05-05 08:50 | -5.60700 | 54.45385 | 29783 ft | 515 kts | 239° |
| 2026-05-05 08:50 | -5.62544 | 54.42304 | 30253 ft | 514 kts | 238° |
| 2026-05-05 08:51 | -5.64387 | 54.39228 | 30764 ft | 513 kts | 238° |
| 2026-05-05 08:51 | -5.66220 | 54.36166 | 31325 ft | 511 kts | 238° |
| 2026-05-05 08:51 | -5.68047 | 54.33113 | 31853 ft | 508 kts | 238° |
| 2026-05-05 08:51 | -5.69878 | 54.30055 | 32323 ft | 507 kts | 238° |
| 2026-05-05 08:52 | -5.71733 | 54.26954 | 32740 ft | 508 kts | 238° |
| 2026-05-05 08:52 | -5.73578 | 54.23871 | 33233 ft | 508 kts | 238° |
| 2026-05-05 08:52 | -5.75413 | 54.20804 | 33744 ft | 507 kts | 238° |
| 2026-05-05 08:52 | -5.77232 | 54.17763 | 34367 ft | 504 kts | 238° |
| 2026-05-05 08:53 | -5.79028 | 54.14759 | 34975 ft | 501 kts | 238° |
| 2026-05-05 08:53 | -5.80817 | 54.11767 | 35473 ft | 500 kts | 238° |
| 2026-05-05 08:53 | -5.82609 | 54.08772 | 35879 ft | 500 kts | 238° |
| 2026-05-05 08:53 | -5.84404 | 54.05769 | 36233 ft | 501 kts | 238° |
| 2026-05-05 08:54 | -5.86199 | 54.02766 | 36561 ft | 501 kts | 238° |
| 2026-05-05 08:54 | -5.87995 | 53.99761 | 36940 ft | 501 kts | 238° |
| 2026-05-05 08:54 | -5.89788 | 53.96759 | 37302 ft | 500 kts | 238° |
| 2026-05-05 08:54 | -5.91575 | 53.93768 | 37638 ft | 499 kts | 238° |
| 2026-05-05 08:55 | -5.93365 | 53.90772 | 37870 ft | 500 kts | 238° |
| 2026-05-05 08:55 | -5.96961 | 53.84751 | 37870 ft | 501 kts | 238° |
| 2026-05-05 08:56 | -6.00542 | 53.78752 | 37874 ft | 499 kts | 238° |
| 2026-05-05 08:56 | -6.04127 | 53.72746 | 37874 ft | 500 kts | 238° |
| 2026-05-05 08:57 | -6.07701 | 53.66756 | 37876 ft | 499 kts | 239° |
| 2026-05-05 08:57 | -6.11272 | 53.60769 | 37881 ft | 499 kts | 239° |
| 2026-05-05 08:58 | -6.14850 | 53.54769 | 37882 ft | 499 kts | 239° |
| 2026-05-05 08:58 | -6.18414 | 53.48788 | 37884 ft | 497 kts | 239° |
| 2026-05-05 08:59 | -6.21982 | 53.42801 | 37887 ft | 497 kts | 239° |
| 2026-05-05 08:59 | -6.25541 | 53.36826 | 37888 ft | 498 kts | 238° |
| 2026-05-05 09:00 | -6.29103 | 53.30844 | 37888 ft | 497 kts | 239° |
| 2026-05-05 09:00 | -6.32657 | 53.24875 | 37892 ft | 497 kts | 239° |
| 2026-05-05 09:01 | -6.36201 | 53.18919 | 37891 ft | 496 kts | 239° |
| 2026-05-05 09:01 | -6.39753 | 53.12948 | 37895 ft | 496 kts | 239° |
| 2026-05-05 09:02 | -6.43788 | 53.07310 | 37896 ft | 496 kts | 231° |
| 2026-05-05 09:02 | -6.48116 | 53.01883 | 37899 ft | 495 kts | 231° |
| 2026-05-05 09:03 | -6.52430 | 52.96471 | 37901 ft | 496 kts | 231° |
| 2026-05-05 09:03 | -6.56747 | 52.91048 | 37900 ft | 494 kts | 231° |
| 2026-05-05 09:04 | -6.61063 | 52.85623 | 37903 ft | 495 kts | 231° |
| 2026-05-05 09:04 | -6.65371 | 52.80206 | 37904 ft | 494 kts | 231° |
| 2026-05-05 09:05 | -6.69677 | 52.74789 | 37902 ft | 495 kts | 231° |
| 2026-05-05 09:05 | -6.73989 | 52.69363 | 37906 ft | 495 kts | 231° |
| 2026-05-05 09:06 | -6.78297 | 52.63938 | 37906 ft | 494 kts | 231° |
| 2026-05-05 09:06 | -6.82609 | 52.58509 | 37909 ft | 495 kts | 231° |
| 2026-05-05 09:07 | -6.86908 | 52.53093 | 37906 ft | 494 kts | 231° |
| 2026-05-05 09:07 | -6.91204 | 52.47679 | 37911 ft | 495 kts | 231° |
| 2026-05-05 09:08 | -6.95509 | 52.42252 | 37910 ft | 494 kts | 231° |
| 2026-05-05 09:08 | -6.99800 | 52.36840 | 37911 ft | 494 kts | 231° |
| 2026-05-05 09:09 | -7.04100 | 52.31417 | 37908 ft | 494 kts | 231° |
| 2026-05-05 09:09 | -7.08403 | 52.25987 | 37914 ft | 494 kts | 231° |
| 2026-05-05 09:10 | -7.12706 | 52.20555 | 37913 ft | 494 kts | 231° |
| 2026-05-05 09:10 | -7.17013 | 52.15117 | 37913 ft | 494 kts | 231° |
| 2026-05-05 09:11 | -7.21308 | 52.09691 | 37913 ft | 494 kts | 231° |
| 2026-05-05 09:11 | -7.25601 | 52.04267 | 37917 ft | 494 kts | 231° |
| 2026-05-05 09:12 | -7.29910 | 51.98820 | 37914 ft | 495 kts | 231° |
| 2026-05-05 09:12 | -7.34207 | 51.93387 | 37920 ft | 494 kts | 231° |
| 2026-05-05 09:13 | -7.38499 | 51.87958 | 37915 ft | 495 kts | 231° |
| 2026-05-05 09:13 | -7.42795 | 51.82523 | 37916 ft | 494 kts | 231° |
| 2026-05-05 09:14 | -7.47093 | 51.77082 | 37920 ft | 495 kts | 231° |
| 2026-05-05 09:14 | -7.51389 | 51.71642 | 37921 ft | 495 kts | 231° |
| 2026-05-05 09:15 | -7.55681 | 51.66206 | 37922 ft | 494 kts | 231° |
| 2026-05-05 09:15 | -7.59975 | 51.60765 | 37924 ft | 495 kts | 231° |
| 2026-05-05 09:16 | -7.64275 | 51.55315 | 37926 ft | 495 kts | 231° |
| 2026-05-05 09:16 | -7.68567 | 51.49873 | 37926 ft | 495 kts | 231° |
| 2026-05-05 09:17 | -7.72864 | 51.44421 | 37924 ft | 494 kts | 231° |
| 2026-05-05 09:17 | -7.77159 | 51.38972 | 37931 ft | 495 kts | 231° |
| 2026-05-05 09:18 | -7.81448 | 51.33528 | 37928 ft | 494 kts | 231° |
| 2026-05-05 09:18 | -7.85740 | 51.28077 | 37929 ft | 495 kts | 231° |
| 2026-05-05 09:19 | -7.90034 | 51.22622 | 37928 ft | 495 kts | 231° |
| 2026-05-05 09:19 | -7.94323 | 51.17172 | 37929 ft | 494 kts | 231° |
| 2026-05-05 09:20 | -7.98611 | 51.11721 | 37930 ft | 494 kts | 231° |
| 2026-05-05 09:20 | -8.02891 | 51.06278 | 37931 ft | 495 kts | 231° |
| 2026-05-05 09:21 | -8.07174 | 51.00829 | 37931 ft | 494 kts | 231° |
| 2026-05-05 09:21 | -8.11456 | 50.95379 | 37930 ft | 494 kts | 232° |
| 2026-05-05 09:22 | -8.15738 | 50.89927 | 37931 ft | 494 kts | 232° |
| 2026-05-05 09:22 | -8.20024 | 50.84468 | 37931 ft | 495 kts | 232° |
| 2026-05-05 09:23 | -8.24309 | 50.79008 | 37931 ft | 495 kts | 231° |
| 2026-05-05 09:23 | -8.28586 | 50.73556 | 37932 ft | 494 kts | 232° |
| 2026-05-05 09:24 | -8.32865 | 50.68099 | 37935 ft | 495 kts | 231° |
| 2026-05-05 09:24 | -8.37140 | 50.62646 | 37933 ft | 495 kts | 231° |
| 2026-05-05 09:25 | -8.41414 | 50.57191 | 37935 ft | 495 kts | 231° |
| 2026-05-05 09:25 | -8.45684 | 50.51740 | 37935 ft | 495 kts | 231° |
| 2026-05-05 09:26 | -8.49959 | 50.46280 | 37937 ft | 495 kts | 231° |
| 2026-05-05 09:26 | -8.54228 | 50.40825 | 37937 ft | 495 kts | 231° |
| 2026-05-05 09:27 | -8.58498 | 50.35367 | 37938 ft | 495 kts | 231° |
| 2026-05-05 09:27 | -8.62785 | 50.29885 | 37937 ft | 495 kts | 232° |
| 2026-05-05 09:28 | -8.67056 | 50.24422 | 37942 ft | 495 kts | 232° |
| 2026-05-05 09:28 | -8.71330 | 50.18951 | 37943 ft | 495 kts | 232° |
| 2026-05-05 09:29 | -8.75605 | 50.13478 | 37941 ft | 495 kts | 232° |
| 2026-05-05 09:29 | -8.79874 | 50.08010 | 37945 ft | 495 kts | 232° |
| 2026-05-05 09:30 | -8.84142 | 50.02541 | 37946 ft | 495 kts | 232° |
| 2026-05-05 09:30 | -8.88419 | 49.97058 | 37949 ft | 496 kts | 232° |
| 2026-05-05 09:31 | -8.92690 | 49.91581 | 37951 ft | 495 kts | 231° |
| 2026-05-05 09:31 | -8.96965 | 49.86097 | 37950 ft | 496 kts | 231° |
| 2026-05-05 09:32 | -9.01234 | 49.80617 | 37953 ft | 495 kts | 232° |
| 2026-05-05 09:32 | -9.05497 | 49.75142 | 37952 ft | 495 kts | 231° |
| 2026-05-05 09:33 | -9.09762 | 49.69664 | 37953 ft | 496 kts | 232° |
| 2026-05-05 09:33 | -9.14032 | 49.64176 | 37951 ft | 495 kts | 232° |
| 2026-05-05 09:34 | -9.18293 | 49.58698 | 37951 ft | 495 kts | 232° |
| 2026-05-05 09:34 | -9.22556 | 49.53214 | 37951 ft | 495 kts | 232° |
| 2026-05-05 09:35 | -9.26814 | 49.47734 | 37953 ft | 495 kts | 232° |
| 2026-05-05 09:35 | -9.33194 | 49.39519 | 37952 ft | 494 kts | 232° |
| 2026-05-05 09:36 | -9.37444 | 49.34044 | 37951 ft | 495 kts | 232° |
| 2026-05-05 09:36 | -9.41693 | 49.28568 | 37950 ft | 494 kts | 232° |
| 2026-05-05 09:37 | -9.45938 | 49.23094 | 37950 ft | 494 kts | 232° |
| 2026-05-05 09:37 | -9.50181 | 49.17621 | 37950 ft | 494 kts | 232° |
| 2026-05-05 09:38 | -9.54421 | 49.12148 | 37951 ft | 493 kts | 232° |
| 2026-05-05 09:38 | -9.58660 | 49.06675 | 37950 ft | 494 kts | 232° |
| 2026-05-05 09:39 | -9.62901 | 49.01197 | 37950 ft | 493 kts | 232° |
| 2026-05-05 09:39 | -9.67127 | 48.95735 | 37951 ft | 492 kts | 232° |
| 2026-05-05 09:40 | -9.71353 | 48.90271 | 37951 ft | 493 kts | 232° |
| 2026-05-05 09:40 | -9.75584 | 48.84799 | 37951 ft | 492 kts | 232° |
| 2026-05-05 09:41 | -9.79814 | 48.79325 | 37951 ft | 493 kts | 232° |
| 2026-05-05 09:41 | -9.84036 | 48.73858 | 37951 ft | 492 kts | 232° |
| 2026-05-05 09:42 | -9.88258 | 48.68390 | 37952 ft | 492 kts | 232° |
| 2026-05-05 09:42 | -9.92486 | 48.62911 | 37952 ft | 493 kts | 232° |
| 2026-05-05 09:43 | -9.96712 | 48.57432 | 37953 ft | 493 kts | 232° |
| 2026-05-05 09:43 | -10.01056 | 48.52064 | 37954 ft | 492 kts | 226° |
| 2026-05-05 09:44 | -10.05863 | 48.47114 | 37953 ft | 493 kts | 225° |
| 2026-05-05 09:44 | -10.10691 | 48.42166 | 37953 ft | 493 kts | 225° |
| 2026-05-05 09:45 | -10.15506 | 48.37223 | 37951 ft | 492 kts | 225° |
| 2026-05-05 09:45 | -10.20319 | 48.32276 | 37950 ft | 492 kts | 225° |
| 2026-05-05 09:46 | -10.25133 | 48.27324 | 37950 ft | 492 kts | 225° |
| 2026-05-05 09:46 | -10.29938 | 48.22378 | 37950 ft | 491 kts | 225° |
| 2026-05-05 09:47 | -10.34743 | 48.17430 | 37950 ft | 492 kts | 225° |
| 2026-05-05 09:47 | -10.39542 | 48.12483 | 37951 ft | 491 kts | 225° |
| 2026-05-05 09:48 | -10.44340 | 48.07537 | 37951 ft | 491 kts | 226° |
| 2026-05-05 09:48 | -10.49132 | 48.02595 | 37951 ft | 490 kts | 226° |
| 2026-05-05 09:49 | -10.53929 | 47.97644 | 37951 ft | 490 kts | 226° |
| 2026-05-05 09:49 | -10.58713 | 47.92705 | 37952 ft | 490 kts | 226° |
| 2026-05-05 09:50 | -10.63496 | 47.87764 | 37955 ft | 490 kts | 226° |
| 2026-05-05 09:50 | -10.68272 | 47.82828 | 37954 ft | 490 kts | 226° |
| 2026-05-05 09:51 | -10.73048 | 47.77890 | 37954 ft | 490 kts | 226° |
| 2026-05-05 09:51 | -10.77826 | 47.72948 | 37957 ft | 489 kts | 226° |
| 2026-05-05 09:52 | -10.82596 | 47.68011 | 37954 ft | 489 kts | 226° |
| 2026-05-05 09:52 | -10.87364 | 47.63074 | 37956 ft | 488 kts | 226° |
| 2026-05-05 09:53 | -10.92125 | 47.58142 | 37961 ft | 489 kts | 226° |
| 2026-05-05 09:53 | -10.96887 | 47.53209 | 37960 ft | 488 kts | 226° |
| 2026-05-05 09:54 | -11.01648 | 47.48275 | 37961 ft | 489 kts | 226° |
| 2026-05-05 09:54 | -11.06410 | 47.43339 | 37963 ft | 488 kts | 226° |
| 2026-05-05 09:55 | -11.11177 | 47.38395 | 37963 ft | 488 kts | 226° |
| 2026-05-05 09:55 | -11.15939 | 47.33453 | 37966 ft | 488 kts | 226° |
| 2026-05-05 09:56 | -11.20704 | 47.28506 | 37967 ft | 489 kts | 226° |
| 2026-05-05 09:56 | -11.25467 | 47.23559 | 37968 ft | 488 kts | 226° |
| 2026-05-05 09:57 | -11.30229 | 47.18610 | 37968 ft | 488 kts | 226° |
| 2026-05-05 09:57 | -11.34987 | 47.13662 | 37969 ft | 488 kts | 226° |
| 2026-05-05 09:58 | -11.39745 | 47.08713 | 37972 ft | 488 kts | 226° |
| 2026-05-05 09:58 | -11.44503 | 47.03760 | 37970 ft | 488 kts | 226° |
| 2026-05-05 09:59 | -11.49259 | 46.98807 | 37972 ft | 488 kts | 226° |
| 2026-05-05 09:59 | -11.54013 | 46.93854 | 37972 ft | 488 kts | 226° |
| 2026-05-05 10:00 | -11.58761 | 46.88904 | 37972 ft | 488 kts | 226° |
| 2026-05-05 10:00 | -11.63509 | 46.83953 | 37972 ft | 487 kts | 226° |
| 2026-05-05 10:01 | -11.68251 | 46.79004 | 37972 ft | 487 kts | 226° |
| 2026-05-05 10:01 | -11.72997 | 46.74048 | 37972 ft | 487 kts | 226° |
| 2026-05-05 10:02 | -11.77733 | 46.69101 | 37972 ft | 487 kts | 226° |
| 2026-05-05 10:02 | -11.82460 | 46.64161 | 37972 ft | 486 kts | 226° |
| 2026-05-05 10:03 | -11.87189 | 46.59215 | 37972 ft | 485 kts | 226° |
| 2026-05-05 10:03 | -11.91911 | 46.54275 | 37972 ft | 486 kts | 226° |
| 2026-05-05 10:04 | -11.96625 | 46.49340 | 37971 ft | 485 kts | 226° |
| 2026-05-05 10:04 | -12.01343 | 46.44399 | 37972 ft | 486 kts | 226° |
| 2026-05-05 10:05 | -12.06060 | 46.39456 | 37971 ft | 485 kts | 226° |
| 2026-05-05 10:05 | -12.10773 | 46.34514 | 37972 ft | 485 kts | 226° |
| 2026-05-05 10:06 | -12.15489 | 46.29567 | 37972 ft | 485 kts | 226° |
| 2026-05-05 10:06 | -12.20205 | 46.24617 | 37972 ft | 485 kts | 227° |
| 2026-05-05 10:07 | -12.24920 | 46.19664 | 37972 ft | 485 kts | 227° |
| 2026-05-05 10:07 | -12.29616 | 46.14702 | 37965 ft | 484 kts | 229° |
| 2026-05-05 10:08 | -12.33461 | 46.09066 | 37974 ft | 484 kts | 239° |
| 2026-05-05 10:08 | -12.36949 | 46.03168 | 37972 ft | 483 kts | 239° |
| 2026-05-05 10:09 | -12.40431 | 45.97269 | 37972 ft | 483 kts | 240° |
| 2026-05-05 10:09 | -12.43904 | 45.91382 | 37972 ft | 484 kts | 240° |
| 2026-05-05 10:10 | -12.47377 | 45.85490 | 37972 ft | 483 kts | 240° |
| 2026-05-05 10:10 | -12.50847 | 45.79600 | 37971 ft | 483 kts | 240° |
| 2026-05-05 10:11 | -12.54319 | 45.73703 | 37971 ft | 483 kts | 240° |
| 2026-05-05 10:11 | -12.57787 | 45.67809 | 37971 ft | 483 kts | 240° |
| 2026-05-05 10:12 | -12.61252 | 45.61916 | 37970 ft | 483 kts | 240° |
| 2026-05-05 10:12 | -12.64719 | 45.56015 | 37970 ft | 483 kts | 240° |
| 2026-05-05 10:13 | -12.68182 | 45.50118 | 37970 ft | 484 kts | 240° |
| 2026-05-05 10:13 | -12.71643 | 45.44221 | 37973 ft | 483 kts | 240° |
| 2026-05-05 10:14 | -12.75093 | 45.38338 | 37978 ft | 483 kts | 240° |
| 2026-05-05 10:14 | -12.78552 | 45.32436 | 37985 ft | 483 kts | 240° |
| 2026-05-05 10:15 | -12.82024 | 45.26559 | 37982 ft | 483 kts | 237° |
| 2026-05-05 10:15 | -12.86008 | 45.20990 | 37985 ft | 483 kts | 234° |
| 2026-05-05 10:16 | -12.90005 | 45.15458 | 37980 ft | 483 kts | 235° |
| 2026-05-05 10:16 | -12.93975 | 45.09918 | 37975 ft | 482 kts | 235° |
| 2026-05-05 10:17 | -12.97936 | 45.04363 | 37973 ft | 482 kts | 235° |
| 2026-05-05 10:17 | -13.01885 | 44.98810 | 37975 ft | 482 kts | 235° |
| 2026-05-05 10:18 | -13.05827 | 44.93257 | 37975 ft | 482 kts | 235° |
| 2026-05-05 10:18 | -13.09766 | 44.87701 | 37979 ft | 482 kts | 235° |
| 2026-05-05 10:19 | -13.13705 | 44.82141 | 37979 ft | 481 kts | 235° |
| 2026-05-05 10:19 | -13.17640 | 44.76582 | 37977 ft | 481 kts | 236° |
| 2026-05-05 10:20 | -13.21572 | 44.71022 | 37978 ft | 481 kts | 236° |
| 2026-05-05 10:20 | -13.25499 | 44.65466 | 37985 ft | 480 kts | 236° |
| 2026-05-05 10:21 | -13.29424 | 44.59909 | 37986 ft | 480 kts | 236° |
| 2026-05-05 10:21 | -13.33348 | 44.54350 | 37984 ft | 480 kts | 236° |
| 2026-05-05 10:22 | -13.37264 | 44.48799 | 37985 ft | 481 kts | 236° |
| 2026-05-05 10:22 | -13.41199 | 44.43258 | 37987 ft | 480 kts | 236° |
| 2026-05-05 10:23 | -13.45135 | 44.37715 | 37987 ft | 481 kts | 235° |
| 2026-05-05 10:23 | -13.49072 | 44.32165 | 37996 ft | 480 kts | 236° |
| 2026-05-05 10:24 | -13.53000 | 44.26624 | 37996 ft | 480 kts | 236° |
| 2026-05-05 10:24 | -13.56928 | 44.21080 | 38002 ft | 479 kts | 236° |
| 2026-05-05 10:25 | -13.60853 | 44.15535 | 38000 ft | 479 kts | 236° |
| 2026-05-05 10:25 | -13.64775 | 44.09993 | 38007 ft | 479 kts | 236° |
| 2026-05-05 10:26 | -13.68692 | 44.04451 | 38005 ft | 479 kts | 236° |
| 2026-05-05 10:26 | -13.72613 | 43.98903 | 38009 ft | 479 kts | 236° |
| 2026-05-05 10:27 | -13.76527 | 43.93360 | 38005 ft | 479 kts | 236° |
| 2026-05-05 10:27 | -13.80438 | 43.87816 | 38010 ft | 479 kts | 236° |
| 2026-05-05 10:28 | -13.84349 | 43.82270 | 38012 ft | 479 kts | 235° |
| 2026-05-05 10:28 | -13.88266 | 43.76713 | 38008 ft | 479 kts | 236° |
| 2026-05-05 10:29 | -13.92174 | 43.71162 | 38011 ft | 479 kts | 236° |
| 2026-05-05 10:29 | -13.96090 | 43.65598 | 38010 ft | 479 kts | 235° |
| 2026-05-05 10:30 | -13.99998 | 43.60042 | 38014 ft | 480 kts | 235° |
| 2026-05-05 10:30 | -14.03912 | 43.54472 | 38010 ft | 480 kts | 235° |
| 2026-05-05 10:31 | -14.07823 | 43.48905 | 38010 ft | 479 kts | 235° |
| 2026-05-05 10:31 | -14.11737 | 43.43328 | 38007 ft | 479 kts | 235° |
| 2026-05-05 10:32 | -14.15644 | 43.37758 | 38009 ft | 480 kts | 235° |
| 2026-05-05 10:32 | -14.19554 | 43.32180 | 38010 ft | 480 kts | 236° |
| 2026-05-05 10:33 | -14.23467 | 43.26594 | 38012 ft | 479 kts | 236° |
| 2026-05-05 10:33 | -14.27374 | 43.21013 | 38012 ft | 480 kts | 236° |
| 2026-05-05 10:34 | -14.31282 | 43.15427 | 38012 ft | 480 kts | 236° |
| 2026-05-05 10:34 | -14.35182 | 43.09848 | 38014 ft | 480 kts | 236° |
| 2026-05-05 10:35 | -14.39085 | 43.04260 | 38013 ft | 480 kts | 236° |
| 2026-05-05 10:35 | -14.42987 | 42.98670 | 38012 ft | 480 kts | 235° |
| 2026-05-05 10:36 | -14.46893 | 42.93071 | 38013 ft | 480 kts | 235° |
| 2026-05-05 10:36 | -14.50798 | 42.87470 | 38013 ft | 480 kts | 236° |
| 2026-05-05 10:37 | -14.54702 | 42.81865 | 38012 ft | 480 kts | 236° |
| 2026-05-05 10:37 | -14.58518 | 42.76200 | 38013 ft | 480 kts | 236° |
| 2026-05-05 10:38 | -14.62328 | 42.70520 | 38012 ft | 481 kts | 236° |
| 2026-05-05 10:38 | -14.66139 | 42.64841 | 38012 ft | 480 kts | 236° |
| 2026-05-05 10:39 | -14.70016 | 42.59214 | 38006 ft | 481 kts | 231° |
| 2026-05-05 10:39 | -14.74745 | 42.54297 | 38011 ft | 483 kts | 225° |
| 2026-05-05 10:40 | -14.79605 | 42.49500 | 38012 ft | 483 kts | 225° |
| 2026-05-05 10:40 | -14.84460 | 42.44706 | 38012 ft | 483 kts | 225° |
| 2026-05-05 10:41 | -14.89319 | 42.39905 | 38012 ft | 483 kts | 225° |
| 2026-05-05 10:41 | -14.94177 | 42.35101 | 38012 ft | 483 kts | 225° |
| 2026-05-05 10:42 | -15.01464 | 42.27891 | 38014 ft | 483 kts | 225° |
| 2026-05-05 10:43 | -15.06321 | 42.23080 | 38014 ft | 483 kts | 225° |
| 2026-05-05 10:43 | -15.11172 | 42.18273 | 38013 ft | 483 kts | 225° |
| 2026-05-05 10:44 | -15.16032 | 42.13453 | 38013 ft | 483 kts | 225° |
| 2026-05-05 10:44 | -15.20887 | 42.08635 | 38013 ft | 483 kts | 225° |
| 2026-05-05 10:45 | -15.25736 | 42.03820 | 38013 ft | 482 kts | 225° |
| 2026-05-05 10:45 | -15.30584 | 41.99002 | 38013 ft | 482 kts | 225° |
| 2026-05-05 10:46 | -15.35426 | 41.94188 | 38013 ft | 482 kts | 225° |
| 2026-05-05 10:46 | -15.40262 | 41.89375 | 38014 ft | 482 kts | 225° |
| 2026-05-05 10:47 | -15.45097 | 41.84561 | 38017 ft | 481 kts | 225° |
| 2026-05-05 10:47 | -15.49931 | 41.79744 | 38015 ft | 481 kts | 225° |
| 2026-05-05 10:48 | -15.54757 | 41.74932 | 38019 ft | 481 kts | 225° |
| 2026-05-05 10:48 | -15.59576 | 41.70124 | 38019 ft | 481 kts | 225° |
| 2026-05-05 10:49 | -15.64402 | 41.65306 | 38020 ft | 481 kts | 225° |
| 2026-05-05 10:49 | -15.69220 | 41.60492 | 38019 ft | 480 kts | 225° |
| 2026-05-05 10:50 | -15.74031 | 41.55682 | 38022 ft | 479 kts | 225° |
| 2026-05-05 10:50 | -15.78836 | 41.50873 | 38022 ft | 479 kts | 225° |
| 2026-05-05 10:51 | -15.83645 | 41.46059 | 38025 ft | 479 kts | 225° |
| 2026-05-05 10:51 | -15.88447 | 41.41248 | 38024 ft | 478 kts | 225° |
| 2026-05-05 10:52 | -15.93245 | 41.36437 | 38025 ft | 479 kts | 225° |
| 2026-05-05 10:52 | -15.98040 | 41.31627 | 38030 ft | 478 kts | 226° |
| 2026-05-05 10:53 | -16.02825 | 41.26823 | 38027 ft | 478 kts | 226° |
| 2026-05-05 10:53 | -16.07615 | 41.22010 | 38029 ft | 478 kts | 226° |
| 2026-05-05 10:54 | -16.12393 | 41.17206 | 38028 ft | 478 kts | 226° |
| 2026-05-05 10:54 | -16.17173 | 41.12396 | 38033 ft | 477 kts | 226° |
| 2026-05-05 10:55 | -16.21947 | 41.07590 | 38031 ft | 477 kts | 226° |
| 2026-05-05 10:55 | -16.26722 | 41.02778 | 38032 ft | 476 kts | 226° |
| 2026-05-05 10:56 | -16.31486 | 40.97974 | 38032 ft | 476 kts | 226° |
| 2026-05-05 10:56 | -16.36244 | 40.93174 | 38032 ft | 476 kts | 226° |
| 2026-05-05 10:57 | -16.41008 | 40.88363 | 38030 ft | 476 kts | 226° |
| 2026-05-05 10:57 | -16.45761 | 40.83561 | 38028 ft | 475 kts | 226° |
| 2026-05-05 10:58 | -16.50507 | 40.78761 | 38030 ft | 475 kts | 226° |
| 2026-05-05 10:58 | -16.55255 | 40.73956 | 38030 ft | 475 kts | 226° |
| 2026-05-05 10:59 | -16.59996 | 40.69155 | 38027 ft | 475 kts | 226° |
| 2026-05-05 10:59 | -16.64734 | 40.64354 | 38030 ft | 474 kts | 226° |
| 2026-05-05 11:00 | -16.69463 | 40.59557 | 38026 ft | 474 kts | 226° |
| 2026-05-05 11:00 | -16.74199 | 40.54751 | 38028 ft | 474 kts | 226° |
| 2026-05-05 11:01 | -16.78925 | 40.49952 | 38027 ft | 474 kts | 226° |
| 2026-05-05 11:01 | -16.83652 | 40.45147 | 38024 ft | 474 kts | 226° |
| 2026-05-05 11:02 | -16.88376 | 40.40342 | 38028 ft | 474 kts | 226° |
| 2026-05-05 11:02 | -16.93097 | 40.35536 | 38031 ft | 474 kts | 226° |
| 2026-05-05 11:03 | -16.97826 | 40.30720 | 38036 ft | 474 kts | 226° |
| 2026-05-05 11:03 | -17.02553 | 40.25901 | 38038 ft | 474 kts | 226° |
| 2026-05-05 11:04 | -17.07270 | 40.21089 | 38033 ft | 474 kts | 226° |
| 2026-05-05 11:04 | -17.11987 | 40.16273 | 38030 ft | 474 kts | 226° |
| 2026-05-05 11:05 | -17.16713 | 40.11445 | 38037 ft | 475 kts | 226° |
| 2026-05-05 11:05 | -17.21436 | 40.06616 | 38033 ft | 474 kts | 226° |
| 2026-05-05 11:06 | -17.26155 | 40.01787 | 38038 ft | 474 kts | 226° |
| 2026-05-05 11:06 | -17.30872 | 39.96957 | 38033 ft | 474 kts | 226° |
| 2026-05-05 11:07 | -17.35596 | 39.92117 | 38032 ft | 474 kts | 226° |
| 2026-05-05 11:07 | -17.40315 | 39.87276 | 38036 ft | 475 kts | 226° |
| 2026-05-05 11:08 | -17.45033 | 39.82434 | 38031 ft | 474 kts | 226° |
| 2026-05-05 11:08 | -17.49747 | 39.77592 | 38037 ft | 475 kts | 226° |
| 2026-05-05 11:09 | -17.54465 | 39.72743 | 38035 ft | 474 kts | 226° |
| 2026-05-05 11:09 | -17.59188 | 39.67884 | 38033 ft | 475 kts | 226° |
| 2026-05-05 11:10 | -17.63909 | 39.63024 | 38033 ft | 474 kts | 226° |
| 2026-05-05 11:10 | -17.68631 | 39.58159 | 38032 ft | 475 kts | 226° |
| 2026-05-05 11:11 | -17.73340 | 39.53303 | 38032 ft | 474 kts | 226° |
| 2026-05-05 11:11 | -17.78063 | 39.48430 | 38032 ft | 475 kts | 226° |
| 2026-05-05 11:12 | -17.82782 | 39.43557 | 38031 ft | 475 kts | 225° |
| 2026-05-05 11:12 | -17.87493 | 39.38688 | 38030 ft | 475 kts | 225° |
| 2026-05-05 11:13 | -17.92210 | 39.33808 | 38035 ft | 475 kts | 226° |
| 2026-05-05 11:13 | -17.96924 | 39.28928 | 38035 ft | 475 kts | 226° |
| 2026-05-05 11:14 | -18.01643 | 39.24040 | 38036 ft | 475 kts | 226° |
| 2026-05-05 11:14 | -18.06363 | 39.19146 | 38034 ft | 476 kts | 226° |
| 2026-05-05 11:15 | -18.11078 | 39.14254 | 38035 ft | 476 kts | 226° |
| 2026-05-05 11:15 | -18.15798 | 39.09352 | 38034 ft | 476 kts | 226° |
| 2026-05-05 11:16 | -18.20513 | 39.04452 | 38033 ft | 476 kts | 226° |
| 2026-05-05 11:16 | -18.25227 | 38.99549 | 38033 ft | 476 kts | 226° |
| 2026-05-05 11:17 | -18.29942 | 38.94640 | 38033 ft | 476 kts | 226° |
| 2026-05-05 11:17 | -18.34651 | 38.89734 | 38033 ft | 476 kts | 226° |
| 2026-05-05 11:18 | -18.39363 | 38.84822 | 38033 ft | 476 kts | 226° |
| 2026-05-05 11:18 | -18.44071 | 38.79908 | 38033 ft | 476 kts | 226° |
| 2026-05-05 11:19 | -18.48778 | 38.74993 | 38033 ft | 476 kts | 226° |
| 2026-05-05 11:19 | -18.53485 | 38.70073 | 38033 ft | 476 kts | 226° |
| 2026-05-05 11:20 | -18.58192 | 38.65149 | 38032 ft | 476 kts | 226° |
| 2026-05-05 11:20 | -18.62904 | 38.60216 | 38032 ft | 476 kts | 226° |
| 2026-05-05 11:21 | -18.67613 | 38.55282 | 38032 ft | 476 kts | 226° |
| 2026-05-05 11:21 | -18.72319 | 38.50347 | 38032 ft | 476 kts | 226° |
| 2026-05-05 11:22 | -18.77018 | 38.45415 | 38032 ft | 476 kts | 226° |
| 2026-05-05 11:22 | -18.81719 | 38.40477 | 38031 ft | 476 kts | 226° |
| 2026-05-05 11:23 | -18.86415 | 38.35540 | 38031 ft | 476 kts | 226° |
| 2026-05-05 11:23 | -18.91117 | 38.30593 | 38035 ft | 476 kts | 226° |
| 2026-05-05 11:24 | -18.95807 | 38.25654 | 38035 ft | 476 kts | 226° |
| 2026-05-05 11:24 | -19.00499 | 38.20710 | 38035 ft | 476 kts | 226° |
| 2026-05-05 11:25 | -19.05182 | 38.15770 | 38034 ft | 476 kts | 226° |
| 2026-05-05 11:25 | -19.09863 | 38.10827 | 38034 ft | 476 kts | 226° |
| 2026-05-05 11:26 | -19.14557 | 38.05868 | 38034 ft | 476 kts | 226° |
| 2026-05-05 11:26 | -19.19248 | 38.00907 | 38034 ft | 476 kts | 226° |
| 2026-05-05 11:27 | -19.23931 | 37.95950 | 38033 ft | 476 kts | 226° |
| 2026-05-05 11:27 | -19.28615 | 37.90988 | 38031 ft | 476 kts | 226° |
| 2026-05-05 11:28 | -19.33300 | 37.86021 | 38030 ft | 476 kts | 226° |
| 2026-05-05 11:28 | -19.37981 | 37.81053 | 38030 ft | 477 kts | 226° |
| 2026-05-05 11:29 | -19.42675 | 37.76068 | 38027 ft | 477 kts | 226° |
| 2026-05-05 11:29 | -19.47364 | 37.71083 | 38025 ft | 477 kts | 226° |
| 2026-05-05 11:30 | -19.52053 | 37.66095 | 38025 ft | 477 kts | 226° |
| 2026-05-05 11:30 | -19.56740 | 37.61103 | 38028 ft | 478 kts | 226° |
| 2026-05-05 11:31 | -19.61423 | 37.56112 | 38025 ft | 477 kts | 226° |
| 2026-05-05 11:31 | -19.66118 | 37.51104 | 38022 ft | 478 kts | 226° |
| 2026-05-05 11:32 | -19.70814 | 37.46090 | 38014 ft | 479 kts | 226° |
| 2026-05-05 11:32 | -19.75516 | 37.41066 | 38016 ft | 478 kts | 227° |
| 2026-05-05 11:33 | -19.80211 | 37.36044 | 38018 ft | 479 kts | 227° |
| 2026-05-05 11:33 | -19.84912 | 37.31012 | 38018 ft | 479 kts | 227° |
| 2026-05-05 11:34 | -19.89610 | 37.25979 | 38021 ft | 479 kts | 227° |
| 2026-05-05 11:34 | -19.94307 | 37.20941 | 38013 ft | 479 kts | 227° |
| 2026-05-05 11:35 | -19.99007 | 37.15896 | 38017 ft | 480 kts | 227° |
| 2026-05-05 11:35 | -20.03702 | 37.10851 | 38013 ft | 480 kts | 227° |
| 2026-05-05 11:36 | -20.08402 | 37.05798 | 38015 ft | 480 kts | 227° |
| 2026-05-05 11:36 | -20.13102 | 37.00739 | 38013 ft | 480 kts | 227° |
| 2026-05-05 11:37 | -20.17797 | 36.95681 | 38013 ft | 479 kts | 227° |
| 2026-05-05 11:37 | -20.22492 | 36.90619 | 38011 ft | 479 kts | 227° |
| 2026-05-05 11:38 | -20.27178 | 36.85562 | 38012 ft | 479 kts | 227° |
| 2026-05-05 11:38 | -20.31861 | 36.80503 | 38012 ft | 479 kts | 227° |
| 2026-05-05 11:39 | -20.36535 | 36.75449 | 38014 ft | 479 kts | 227° |
| 2026-05-05 11:39 | -20.41216 | 36.70383 | 38012 ft | 479 kts | 227° |
| 2026-05-05 11:40 | -20.45883 | 36.65329 | 38003 ft | 478 kts | 227° |
| 2026-05-05 11:40 | -20.50554 | 36.60264 | 38008 ft | 478 kts | 227° |
| 2026-05-05 11:41 | -20.55212 | 36.55209 | 38010 ft | 477 kts | 227° |
| 2026-05-05 11:41 | -20.59880 | 36.50139 | 38005 ft | 478 kts | 227° |
| 2026-05-05 11:42 | -20.64536 | 36.45076 | 38008 ft | 477 kts | 227° |
| 2026-05-05 11:42 | -20.69192 | 36.40010 | 37999 ft | 477 kts | 228° |
| 2026-05-05 11:43 | -20.73836 | 36.34952 | 38000 ft | 476 kts | 228° |
| 2026-05-05 11:43 | -20.78475 | 36.29894 | 38008 ft | 476 kts | 228° |
| 2026-05-05 11:44 | -20.83109 | 36.24837 | 38001 ft | 475 kts | 228° |
| 2026-05-05 11:44 | -20.87746 | 36.19772 | 37999 ft | 475 kts | 228° |
| 2026-05-05 11:45 | -20.92384 | 36.14701 | 37997 ft | 476 kts | 229° |
| 2026-05-05 11:45 | -20.97013 | 36.09636 | 38002 ft | 475 kts | 229° |
| 2026-05-05 11:46 | -21.01638 | 36.04570 | 37990 ft | 474 kts | 229° |
| 2026-05-05 11:46 | -21.06264 | 35.99497 | 37993 ft | 475 kts | 229° |
| 2026-05-05 11:47 | -21.10883 | 35.94428 | 37991 ft | 475 kts | 229° |
| 2026-05-05 11:47 | -21.15506 | 35.89349 | 37990 ft | 475 kts | 229° |
| 2026-05-05 11:48 | -21.22432 | 35.81732 | 37988 ft | 474 kts | 229° |
| 2026-05-05 11:48 | -21.27045 | 35.76652 | 37984 ft | 475 kts | 229° |
| 2026-05-05 11:49 | -21.31655 | 35.71572 | 37986 ft | 475 kts | 229° |
| 2026-05-05 11:49 | -21.36268 | 35.66482 | 37984 ft | 474 kts | 229° |
| 2026-05-05 11:50 | -21.41472 | 35.62074 | 37976 ft | 482 kts | 213° |
| 2026-05-05 11:50 | -21.47414 | 35.58651 | 37983 ft | 483 kts | 211° |
| 2026-05-05 11:51 | -21.53360 | 35.55251 | 37981 ft | 483 kts | 212° |
| 2026-05-05 11:51 | -21.59309 | 35.51822 | 37978 ft | 483 kts | 212° |
| 2026-05-05 11:52 | -21.65245 | 35.48385 | 37980 ft | 483 kts | 212° |
| 2026-05-05 11:52 | -21.71160 | 35.44950 | 37980 ft | 483 kts | 212° |
| 2026-05-05 11:53 | -21.77088 | 35.41500 | 37979 ft | 483 kts | 212° |
| 2026-05-05 11:53 | -21.83008 | 35.38049 | 37979 ft | 483 kts | 212° |
| 2026-05-05 11:54 | -21.88925 | 35.34596 | 37983 ft | 483 kts | 212° |
| 2026-05-05 11:54 | -21.94818 | 35.31142 | 37988 ft | 482 kts | 214° |
| 2026-05-05 11:55 | -22.00033 | 35.26738 | 37988 ft | 473 kts | 230° |
| 2026-05-05 11:55 | -22.04475 | 35.21541 | 37995 ft | 472 kts | 232° |
| 2026-05-05 11:56 | -22.08773 | 35.16456 | 37991 ft | 470 kts | 232° |
| 2026-05-05 11:56 | -22.13178 | 35.11238 | 37983 ft | 470 kts | 232° |
| 2026-05-05 11:57 | -22.17581 | 35.06016 | 37981 ft | 470 kts | 232° |
| 2026-05-05 11:57 | -22.21906 | 35.00882 | 37982 ft | 470 kts | 232° |
| 2026-05-05 11:58 | -22.26316 | 34.95641 | 37983 ft | 470 kts | 232° |
| 2026-05-05 11:58 | -22.30714 | 34.90411 | 37983 ft | 470 kts | 232° |
| 2026-05-05 11:59 | -22.35125 | 34.85158 | 37981 ft | 470 kts | 232° |
| 2026-05-05 11:59 | -22.39527 | 34.79912 | 37979 ft | 470 kts | 232° |
| 2026-05-05 12:00 | -22.43940 | 34.74670 | 37977 ft | 471 kts | 231° |
| 2026-05-05 12:00 | -22.48463 | 34.69522 | 37984 ft | 471 kts | 231° |
| 2026-05-05 12:01 | -22.52982 | 34.64376 | 37983 ft | 471 kts | 231° |
| 2026-05-05 12:01 | -22.57495 | 34.59224 | 37978 ft | 471 kts | 231° |
| 2026-05-05 12:02 | -22.62000 | 34.54073 | 37980 ft | 470 kts | 231° |
| 2026-05-05 12:02 | -22.66504 | 34.48915 | 37983 ft | 471 kts | 231° |
| 2026-05-05 12:03 | -22.71008 | 34.43751 | 37983 ft | 471 kts | 231° |
| 2026-05-05 12:03 | -22.75512 | 34.38582 | 37980 ft | 470 kts | 231° |
| 2026-05-05 12:04 | -22.80000 | 34.33424 | 37987 ft | 470 kts | 231° |
| 2026-05-05 12:04 | -22.84487 | 34.28263 | 37986 ft | 470 kts | 231° |
| 2026-05-05 12:05 | -22.88962 | 34.23109 | 37985 ft | 469 kts | 231° |
| 2026-05-05 12:05 | -22.93364 | 34.18035 | 37979 ft | 470 kts | 231° |
| 2026-05-05 12:06 | -22.97853 | 34.12856 | 37979 ft | 470 kts | 231° |
| 2026-05-05 12:06 | -23.02333 | 34.07681 | 37977 ft | 470 kts | 231° |
| 2026-05-05 12:07 | -23.06798 | 34.02519 | 37973 ft | 468 kts | 232° |
| 2026-05-05 12:07 | -23.11262 | 33.97353 | 37959 ft | 469 kts | 231° |
| 2026-05-05 12:08 | -23.15719 | 33.92189 | 37959 ft | 468 kts | 232° |
| 2026-05-05 12:08 | -23.20161 | 33.87037 | 37954 ft | 467 kts | 232° |
| 2026-05-05 12:09 | -23.24246 | 33.82293 | 37949 ft | 466 kts | 232° |
| 2026-05-05 12:09 | -23.28698 | 33.77120 | 37948 ft | 467 kts | 232° |
| 2026-05-05 12:10 | -23.33141 | 33.71951 | 37946 ft | 466 kts | 232° |
| 2026-05-05 12:10 | -23.37557 | 33.66809 | 37945 ft | 464 kts | 232° |
| 2026-05-05 12:11 | -23.41973 | 33.61660 | 37945 ft | 465 kts | 232° |
| 2026-05-05 12:11 | -23.46366 | 33.56533 | 37942 ft | 463 kts | 232° |
| 2026-05-05 12:12 | -23.50790 | 33.51361 | 38249 ft | 469 kts | 232° |
| 2026-05-05 12:12 | -23.53008 | 33.48769 | 38491 ft | 470 kts | 232° |
| 2026-05-05 12:12 | -23.55247 | 33.46147 | 38470 ft | 476 kts | 232° |
| 2026-05-05 12:13 | -23.59764 | 33.40860 | 39117 ft | 472 kts | 233° |
| 2026-05-05 12:13 | -23.61976 | 33.38273 | 39863 ft | 464 kts | 233° |
| 2026-05-05 12:13 | -23.64172 | 33.35698 | 39937 ft | 464 kts | 233° |
| 2026-05-05 12:14 | -23.68534 | 33.30579 | 39950 ft | 459 kts | 233° |
| 2026-05-05 12:14 | -23.72904 | 33.25443 | 39950 ft | 462 kts | 233° |
| 2026-05-05 12:15 | -23.76765 | 33.20903 | 39953 ft | 460 kts | 234° |
| 2026-05-05 12:15 | -23.81118 | 33.15780 | 39950 ft | 458 kts | 234° |
| 2026-05-05 12:16 | -23.85361 | 33.10779 | 39949 ft | 459 kts | 234° |
| 2026-05-05 12:16 | -23.89693 | 33.05670 | 39944 ft | 458 kts | 234° |
| 2026-05-05 12:17 | -23.94029 | 33.00550 | 39943 ft | 459 kts | 234° |
| 2026-05-05 12:17 | -23.98359 | 32.95432 | 39941 ft | 456 kts | 234° |
| 2026-05-05 12:18 | -24.02680 | 32.90319 | 39942 ft | 458 kts | 234° |
| 2026-05-05 12:18 | -24.06985 | 32.85220 | 39938 ft | 456 kts | 234° |
| 2026-05-05 12:19 | -24.11303 | 32.80097 | 39925 ft | 459 kts | 234° |
| 2026-05-05 12:19 | -24.15621 | 32.74974 | 39929 ft | 457 kts | 234° |
| 2026-05-05 12:20 | -24.19433 | 32.70443 | 39925 ft | 458 kts | 234° |
| 2026-05-05 12:20 | -24.23752 | 32.65304 | 39926 ft | 460 kts | 234° |
| 2026-05-05 12:21 | -24.28031 | 32.60209 | 39922 ft | 460 kts | 234° |
| 2026-05-05 12:21 | -24.32353 | 32.55058 | 39927 ft | 459 kts | 234° |
| 2026-05-05 12:22 | -24.36664 | 32.49914 | 39921 ft | 458 kts | 234° |
| 2026-05-05 12:22 | -24.40978 | 32.44759 | 39930 ft | 459 kts | 234° |
| 2026-05-05 12:23 | -24.45291 | 32.39602 | 39924 ft | 458 kts | 234° |
| 2026-05-05 12:23 | -24.49590 | 32.34455 | 39928 ft | 459 kts | 235° |
| 2026-05-05 12:24 | -24.53844 | 32.29254 | 39932 ft | 454 kts | 239° |
| 2026-05-05 12:24 | -24.57583 | 32.23882 | 39938 ft | 453 kts | 240° |
| 2026-05-05 12:25 | -24.61393 | 32.18404 | 39938 ft | 455 kts | 240° |
| 2026-05-05 12:25 | -24.65244 | 32.12900 | 39944 ft | 453 kts | 240° |
| 2026-05-05 12:26 | -24.68791 | 32.07839 | 39947 ft | 455 kts | 240° |
| 2026-05-05 12:26 | -24.72646 | 32.02344 | 39938 ft | 454 kts | 240° |
| 2026-05-05 12:27 | -24.76537 | 31.96869 | 39947 ft | 455 kts | 239° |
| 2026-05-05 12:27 | -24.80467 | 31.91452 | 39945 ft | 453 kts | 239° |
| 2026-05-05 12:28 | -24.84406 | 31.86010 | 39940 ft | 455 kts | 239° |
| 2026-05-05 12:28 | -24.88342 | 31.80563 | 39947 ft | 456 kts | 239° |
| 2026-05-05 12:29 | -24.92265 | 31.75128 | 39949 ft | 454 kts | 239° |
| 2026-05-05 12:29 | -24.96177 | 31.69701 | 39950 ft | 453 kts | 239° |
| 2026-05-05 12:30 | -25.00095 | 31.64255 | 39948 ft | 454 kts | 240° |
| 2026-05-05 12:30 | -25.04014 | 31.58804 | 39954 ft | 454 kts | 240° |
| 2026-05-05 12:31 | -25.07929 | 31.53353 | 39952 ft | 453 kts | 240° |
| 2026-05-05 12:31 | -25.11840 | 31.47901 | 39950 ft | 454 kts | 240° |
| 2026-05-05 12:32 | -25.15754 | 31.42437 | 39953 ft | 455 kts | 240° |
| 2026-05-05 12:32 | -25.19587 | 31.37081 | 39974 ft | 453 kts | 240° |
| 2026-05-05 12:33 | -25.23336 | 31.31836 | 39993 ft | 452 kts | 240° |
| 2026-05-05 12:33 | -25.26763 | 31.27032 | 40011 ft | 454 kts | 240° |
| 2026-05-05 12:34 | -25.30454 | 31.21856 | 40022 ft | 453 kts | 240° |
| 2026-05-05 12:34 | -25.34372 | 31.16356 | 40023 ft | 453 kts | 241° |
| 2026-05-05 12:35 | -25.38257 | 31.11271 | 40029 ft | 461 kts | 233° |
| 2026-05-05 12:35 | -25.40706 | 31.08925 | 40031 ft | 472 kts | 227° |
| 2026-05-05 12:35 | -25.43310 | 31.06749 | 40034 ft | 472 kts | 226° |
| 2026-05-05 12:36 | -25.48299 | 31.02623 | 40054 ft | 472 kts | 226° |
| 2026-05-05 12:36 | -25.53556 | 30.98265 | 40059 ft | 472 kts | 226° |
| 2026-05-05 12:37 | -25.58804 | 30.93903 | 40077 ft | 471 kts | 226° |
| 2026-05-05 12:37 | -25.64068 | 30.89517 | 40097 ft | 473 kts | 227° |
| 2026-05-05 12:38 | -25.69316 | 30.85141 | 40120 ft | 473 kts | 227° |
| 2026-05-05 12:38 | -25.74595 | 30.80730 | 40132 ft | 477 kts | 227° |
| 2026-05-05 12:39 | -25.79924 | 30.76273 | 40151 ft | 481 kts | 227° |
| 2026-05-05 12:39 | -25.85299 | 30.71771 | 40149 ft | 485 kts | 227° |
| 2026-05-05 12:40 | -25.90699 | 30.67244 | 40137 ft | 488 kts | 227° |
| 2026-05-05 12:40 | -25.96119 | 30.62694 | 40137 ft | 490 kts | 227° |
| 2026-05-05 12:41 | -26.01561 | 30.58118 | 40127 ft | 490 kts | 227° |
| 2026-05-05 12:41 | -26.07007 | 30.53528 | 40157 ft | 491 kts | 227° |
| 2026-05-05 12:42 | -26.12441 | 30.48943 | 40158 ft | 491 kts | 227° |
| 2026-05-05 12:42 | -26.17870 | 30.44357 | 40174 ft | 490 kts | 227° |
| 2026-05-05 12:43 | -26.22335 | 30.40039 | 40176 ft | 474 kts | 238° |
| 2026-05-05 12:43 | -26.26315 | 30.34724 | 40188 ft | 470 kts | 241° |
| 2026-05-05 12:44 | -26.30452 | 30.29083 | 40202 ft | 470 kts | 241° |
| 2026-05-05 12:44 | -26.34304 | 30.23826 | 40203 ft | 469 kts | 241° |
| 2026-05-05 12:45 | -26.38437 | 30.18177 | 40189 ft | 470 kts | 241° |
| 2026-05-05 12:45 | -26.42571 | 30.12520 | 40179 ft | 471 kts | 241° |
| 2026-05-05 12:46 | -26.46695 | 30.06871 | 40157 ft | 470 kts | 242° |
| 2026-05-05 12:46 | -26.50625 | 30.01482 | 40160 ft | 469 kts | 241° |
| 2026-05-05 12:47 | -26.54735 | 29.95837 | 40160 ft | 469 kts | 242° |
| 2026-05-05 12:47 | -26.58535 | 29.90611 | 40153 ft | 469 kts | 242° |
| 2026-05-05 12:48 | -26.62638 | 29.84965 | 40174 ft | 468 kts | 242° |
| 2026-05-05 12:48 | -26.66730 | 29.79324 | 40176 ft | 468 kts | 242° |
| 2026-05-05 12:49 | -26.70825 | 29.73673 | 40193 ft | 468 kts | 242° |
| 2026-05-05 12:49 | -26.74922 | 29.68010 | 40188 ft | 469 kts | 242° |
| 2026-05-05 12:50 | -26.79012 | 29.62352 | 40181 ft | 468 kts | 242° |
| 2026-05-05 12:50 | -26.83103 | 29.56682 | 40184 ft | 469 kts | 242° |
| 2026-05-05 12:51 | -26.87190 | 29.51013 | 40177 ft | 469 kts | 242° |
| 2026-05-05 12:51 | -26.91278 | 29.45335 | 40178 ft | 469 kts | 242° |
| 2026-05-05 12:52 | -26.95355 | 29.39667 | 40168 ft | 468 kts | 242° |
| 2026-05-05 12:52 | -26.99437 | 29.33982 | 40182 ft | 469 kts | 242° |
| 2026-05-05 12:53 | -27.03510 | 29.28302 | 40185 ft | 469 kts | 243° |
| 2026-05-05 12:53 | -27.07208 | 29.23141 | 40187 ft | 469 kts | 243° |
| 2026-05-05 12:54 | -27.13116 | 29.14878 | 40163 ft | 469 kts | 243° |
| 2026-05-05 12:55 | -27.17183 | 29.09186 | 40152 ft | 468 kts | 243° |
| 2026-05-05 12:55 | -27.21034 | 29.03784 | 40161 ft | 469 kts | 243° |
| 2026-05-05 12:56 | -27.25057 | 28.98136 | 40157 ft | 469 kts | 243° |
| 2026-05-05 12:56 | -27.29124 | 28.92420 | 40150 ft | 469 kts | 243° |
| 2026-05-05 12:57 | -27.32920 | 28.87075 | 40147 ft | 470 kts | 243° |
| 2026-05-05 12:57 | -27.36995 | 28.81334 | 40156 ft | 469 kts | 243° |
| 2026-05-05 12:58 | -27.41050 | 28.75612 | 40149 ft | 468 kts | 243° |
| 2026-05-05 12:58 | -27.44697 | 28.70458 | 40155 ft | 469 kts | 243° |
| 2026-05-05 12:59 | -27.48760 | 28.64712 | 40144 ft | 468 kts | 243° |
| 2026-05-05 12:59 | -27.52811 | 28.58974 | 40143 ft | 468 kts | 244° |
| 2026-05-05 13:00 | -27.58870 | 28.50377 | 40136 ft | 467 kts | 243° |
| 2026-05-05 13:01 | -27.66914 | 28.38941 | 40137 ft | 465 kts | 243° |
| 2026-05-05 13:01 | -27.70924 | 28.33226 | 40161 ft | 464 kts | 244° |
| 2026-05-05 13:02 | -27.74926 | 28.27517 | 40159 ft | 464 kts | 244° |
| 2026-05-05 13:02 | -27.78924 | 28.21805 | 40153 ft | 464 kts | 244° |
| 2026-05-05 13:03 | -27.82284 | 28.16999 | 40152 ft | 465 kts | 244° |
| 2026-05-05 13:03 | -27.86280 | 28.11276 | 40147 ft | 463 kts | 244° |
| 2026-05-05 13:04 | -27.90271 | 28.05552 | 40151 ft | 465 kts | 244° |
| 2026-05-05 13:04 | -27.94223 | 27.99875 | 40151 ft | 467 kts | 244° |
| 2026-05-05 13:05 | -27.98217 | 27.94133 | 40136 ft | 464 kts | 244° |
| 2026-05-05 13:05 | -28.02208 | 27.88385 | 40142 ft | 466 kts | 244° |
| 2026-05-05 13:06 | -28.06205 | 27.82623 | 40129 ft | 465 kts | 244° |
| 2026-05-05 13:06 | -28.10204 | 27.76851 | 40122 ft | 465 kts | 245° |
| 2026-05-05 13:07 | -28.14185 | 27.71096 | 40107 ft | 464 kts | 244° |
| 2026-05-05 13:07 | -28.18163 | 27.65336 | 40092 ft | 465 kts | 244° |
| 2026-05-05 13:08 | -28.21691 | 27.60221 | 40097 ft | 466 kts | 244° |
| 2026-05-05 13:08 | -28.25474 | 27.54731 | 40088 ft | 466 kts | 244° |
| 2026-05-05 13:09 | -28.29378 | 27.49057 | 40074 ft | 466 kts | 245° |
| 2026-05-05 13:09 | -28.33367 | 27.43253 | 40066 ft | 467 kts | 244° |
| 2026-05-05 13:10 | -28.37186 | 27.37686 | 40064 ft | 468 kts | 245° |
| 2026-05-05 13:10 | -28.41187 | 27.31848 | 40088 ft | 468 kts | 245° |
| 2026-05-05 13:11 | -28.45174 | 27.26023 | 40072 ft | 468 kts | 245° |
| 2026-05-05 13:11 | -28.48580 | 27.21041 | 40075 ft | 469 kts | 245° |
| 2026-05-05 13:12 | -28.52517 | 27.15272 | 40064 ft | 469 kts | 245° |
| 2026-05-05 13:12 | -28.56515 | 27.09408 | 40065 ft | 470 kts | 245° |
| 2026-05-05 13:13 | -28.60515 | 27.03531 | 40053 ft | 471 kts | 245° |
| 2026-05-05 13:13 | -28.64522 | 26.97636 | 40048 ft | 472 kts | 245° |
| 2026-05-05 13:14 | -28.68527 | 26.91738 | 40040 ft | 472 kts | 245° |
| 2026-05-05 13:14 | -28.72526 | 26.85840 | 40040 ft | 473 kts | 245° |
| 2026-05-05 13:15 | -28.76538 | 26.79913 | 40039 ft | 474 kts | 245° |
| 2026-05-05 13:15 | -28.80548 | 26.73982 | 40034 ft | 472 kts | 245° |
| 2026-05-05 13:16 | -28.84550 | 26.68054 | 40030 ft | 473 kts | 245° |
| 2026-05-05 13:16 | -28.88549 | 26.62123 | 40028 ft | 473 kts | 245° |
| 2026-05-05 13:17 | -28.92547 | 26.56184 | 40024 ft | 474 kts | 245° |
| 2026-05-05 13:17 | -28.96546 | 26.50238 | 40022 ft | 472 kts | 244° |
| 2026-05-05 13:18 | -29.00538 | 26.44292 | 40006 ft | 473 kts | 244° |
| 2026-05-05 13:18 | -29.04529 | 26.38337 | 40015 ft | 474 kts | 244° |
| 2026-05-05 13:19 | -29.08526 | 26.32366 | 40025 ft | 474 kts | 245° |
| 2026-05-05 13:19 | -29.12734 | 26.26507 | 40009 ft | 483 kts | 239° |
| 2026-05-05 13:20 | -29.17330 | 26.20881 | 40004 ft | 485 kts | 239° |
| 2026-05-05 13:20 | -29.21439 | 26.15816 | 40006 ft | 485 kts | 239° |
| 2026-05-05 13:21 | -29.25996 | 26.10165 | 39994 ft | 483 kts | 239° |
| 2026-05-05 13:21 | -29.29981 | 26.05199 | 39993 ft | 485 kts | 240° |
| 2026-05-05 13:22 | -29.34451 | 25.99612 | 39987 ft | 485 kts | 239° |
| 2026-05-05 13:22 | -29.39008 | 25.93905 | 39988 ft | 486 kts | 239° |
| 2026-05-05 13:23 | -29.43166 | 25.88688 | 39988 ft | 486 kts | 240° |
| 2026-05-05 13:23 | -29.47704 | 25.82986 | 39976 ft | 484 kts | 239° |
| 2026-05-05 13:24 | -29.52227 | 25.77294 | 39976 ft | 484 kts | 240° |
| 2026-05-05 13:24 | -29.56755 | 25.71583 | 39976 ft | 484 kts | 240° |
| 2026-05-05 13:25 | -29.61283 | 25.65867 | 39981 ft | 484 kts | 240° |
| 2026-05-05 13:25 | -29.65811 | 25.60140 | 39980 ft | 485 kts | 240° |
| 2026-05-05 13:26 | -29.70344 | 25.54400 | 39978 ft | 486 kts | 240° |
| 2026-05-05 13:26 | -29.74871 | 25.48659 | 39979 ft | 485 kts | 240° |
| 2026-05-05 13:27 | -29.79396 | 25.42912 | 39977 ft | 486 kts | 240° |
| 2026-05-05 13:27 | -29.83924 | 25.37154 | 39979 ft | 485 kts | 240° |
| 2026-05-05 13:28 | -29.88448 | 25.31391 | 40001 ft | 486 kts | 240° |
| 2026-05-05 13:28 | -29.92975 | 25.25615 | 40007 ft | 488 kts | 240° |
| 2026-05-05 13:29 | -29.97355 | 25.20022 | 39999 ft | 486 kts | 240° |
| 2026-05-05 13:29 | -30.01628 | 25.14556 | 39997 ft | 486 kts | 240° |
| 2026-05-05 13:30 | -30.06154 | 25.08756 | 39991 ft | 488 kts | 240° |
| 2026-05-05 13:30 | -30.10611 | 25.03040 | 39989 ft | 488 kts | 240° |
| 2026-05-05 13:31 | -30.15046 | 24.97342 | 39974 ft | 487 kts | 240° |
| 2026-05-05 13:31 | -30.19472 | 24.91646 | 39964 ft | 488 kts | 240° |
| 2026-05-05 13:32 | -30.24113 | 24.85666 | 39949 ft | 489 kts | 240° |
| 2026-05-05 13:32 | -30.28646 | 24.79816 | 39946 ft | 489 kts | 240° |
| 2026-05-05 13:33 | -30.32607 | 24.74696 | 39973 ft | 491 kts | 240° |
| 2026-05-05 13:33 | -30.37153 | 24.68814 | 39965 ft | 491 kts | 240° |
| 2026-05-05 13:34 | -30.41723 | 24.62932 | 39965 ft | 492 kts | 240° |
| 2026-05-05 13:34 | -30.46292 | 24.57049 | 39962 ft | 492 kts | 240° |
| 2026-05-05 13:35 | -30.50866 | 24.51147 | 39964 ft | 494 kts | 240° |
| 2026-05-05 13:35 | -30.55458 | 24.45214 | 39969 ft | 495 kts | 239° |
| 2026-05-05 13:36 | -30.60033 | 24.39293 | 39963 ft | 495 kts | 239° |
| 2026-05-05 13:36 | -30.64625 | 24.33340 | 39977 ft | 496 kts | 240° |
| 2026-05-05 13:37 | -30.69217 | 24.27378 | 39980 ft | 496 kts | 240° |
| 2026-05-05 13:37 | -30.73425 | 24.21908 | 39966 ft | 496 kts | 240° |
| 2026-05-05 13:38 | -30.78014 | 24.15933 | 39982 ft | 497 kts | 240° |
| 2026-05-05 13:38 | -30.82238 | 24.10424 | 39973 ft | 497 kts | 239° |
| 2026-05-05 13:39 | -30.86857 | 24.04389 | 39961 ft | 500 kts | 239° |
| 2026-05-05 13:39 | -30.91459 | 23.98371 | 39977 ft | 499 kts | 239° |
| 2026-05-05 13:40 | -30.96058 | 23.92346 | 39993 ft | 498 kts | 239° |
| 2026-05-05 13:40 | -31.00657 | 23.86310 | 39979 ft | 500 kts | 239° |
| 2026-05-05 13:41 | -31.05266 | 23.80252 | 39969 ft | 500 kts | 239° |
| 2026-05-05 13:41 | -31.09866 | 23.74198 | 39969 ft | 500 kts | 239° |
| 2026-05-05 13:42 | -31.14471 | 23.68126 | 39954 ft | 500 kts | 239° |
| 2026-05-05 13:42 | -31.19076 | 23.62045 | 39973 ft | 501 kts | 239° |
| 2026-05-05 13:43 | -31.23463 | 23.56243 | 39968 ft | 501 kts | 239° |
| 2026-05-05 13:43 | -31.28060 | 23.50154 | 39957 ft | 501 kts | 239° |
| 2026-05-05 13:44 | -31.32597 | 23.44138 | 39952 ft | 501 kts | 239° |
| 2026-05-05 13:44 | -31.37118 | 23.38134 | 39932 ft | 502 kts | 238° |
| 2026-05-05 13:45 | -31.41340 | 23.32518 | 39965 ft | 501 kts | 239° |
| 2026-05-05 13:45 | -31.45937 | 23.26392 | 39956 ft | 503 kts | 239° |
| 2026-05-05 13:46 | -31.49816 | 23.21216 | 39984 ft | 503 kts | 239° |
| 2026-05-05 13:46 | -31.54427 | 23.15056 | 39961 ft | 502 kts | 239° |
| 2026-05-05 13:47 | -31.59021 | 23.08906 | 40016 ft | 503 kts | 238° |
| 2026-05-05 13:47 | -31.63631 | 23.02725 | 39970 ft | 504 kts | 238° |
| 2026-05-05 13:48 | -31.68237 | 22.96542 | 39970 ft | 503 kts | 238° |
| 2026-05-05 13:48 | -31.72831 | 22.90363 | 39916 ft | 503 kts | 238° |
| 2026-05-05 13:49 | -31.77424 | 22.84175 | 39979 ft | 504 kts | 238° |
| 2026-05-05 13:49 | -31.82011 | 22.77985 | 39934 ft | 503 kts | 237° |
| 2026-05-05 13:50 | -31.86599 | 22.71783 | 39983 ft | 504 kts | 237° |
| 2026-05-05 13:50 | -31.91201 | 22.65552 | 39980 ft | 505 kts | 237° |
| 2026-05-05 13:51 | -31.95798 | 22.59318 | 39990 ft | 506 kts | 237° |
| 2026-05-05 13:51 | -32.00399 | 22.53068 | 39977 ft | 506 kts | 237° |
| 2026-05-05 13:52 | -32.04999 | 22.46810 | 39953 ft | 505 kts | 237° |
| 2026-05-05 13:52 | -32.09587 | 22.40556 | 39968 ft | 506 kts | 236° |
| 2026-05-05 13:53 | -32.14191 | 22.34270 | 39958 ft | 507 kts | 237° |
| 2026-05-05 13:53 | -32.18785 | 22.27987 | 39973 ft | 507 kts | 237° |
| 2026-05-05 13:54 | -32.23374 | 22.21701 | 39969 ft | 506 kts | 236° |
| 2026-05-05 13:54 | -32.26707 | 22.17129 | 39995 ft | 507 kts | 236° |
| 2026-05-05 13:55 | -32.31222 | 22.10925 | 39967 ft | 507 kts | 236° |
| 2026-05-05 13:55 | -32.35706 | 22.04754 | 39966 ft | 509 kts | 236° |
| 2026-05-05 13:56 | -32.40398 | 21.98288 | 39981 ft | 508 kts | 236° |
| 2026-05-05 13:56 | -32.44765 | 21.92257 | 39977 ft | 508 kts | 236° |
| 2026-05-05 13:57 | -32.49279 | 21.86014 | 39983 ft | 509 kts | 235° |
| 2026-05-05 13:57 | -32.53736 | 21.79839 | 39978 ft | 509 kts | 235° |
| 2026-05-05 13:58 | -32.58340 | 21.73450 | 39979 ft | 509 kts | 235° |
| 2026-05-05 13:58 | -32.62931 | 21.67068 | 39982 ft | 509 kts | 235° |
| 2026-05-05 13:59 | -32.69822 | 21.57466 | 39975 ft | 511 kts | 235° |
| 2026-05-05 14:00 | -32.75948 | 21.48912 | 39975 ft | 509 kts | 235° |
| 2026-05-05 14:00 | -32.81296 | 21.41426 | 39975 ft | 510 kts | 234° |
| 2026-05-05 14:01 | -32.85866 | 21.35017 | 39980 ft | 510 kts | 234° |
| 2026-05-05 14:01 | -32.90439 | 21.28593 | 39984 ft | 510 kts | 234° |
| 2026-05-05 14:02 | -32.95003 | 21.22171 | 39985 ft | 510 kts | 234° |
| 2026-05-05 14:02 | -32.98673 | 21.16998 | 39983 ft | 510 kts | 234° |
| 2026-05-05 14:03 | -33.03140 | 21.10691 | 39979 ft | 510 kts | 234° |
| 2026-05-05 14:03 | -33.07462 | 21.04580 | 39986 ft | 509 kts | 234° |
| 2026-05-05 14:04 | -33.12043 | 20.98091 | 39975 ft | 509 kts | 234° |
| 2026-05-05 14:04 | -33.16478 | 20.91798 | 39982 ft | 508 kts | 234° |
| 2026-05-05 14:05 | -33.20725 | 20.85761 | 39980 ft | 507 kts | 234° |
| 2026-05-05 14:05 | -33.25259 | 20.79306 | 39983 ft | 507 kts | 234° |
| 2026-05-05 14:06 | -33.29777 | 20.72862 | 39986 ft | 506 kts | 233° |
| 2026-05-05 14:06 | -33.34258 | 20.66462 | 39617 ft | 496 kts | 233° |
| 2026-05-05 14:07 | -33.36461 | 20.63311 | 38587 ft | 498 kts | 233° |
| 2026-05-05 14:07 | -33.38681 | 20.60129 | 37346 ft | 504 kts | 233° |
| 2026-05-05 14:07 | -33.40915 | 20.56926 | 36399 ft | 506 kts | 233° |
| 2026-05-05 14:07 | -33.43163 | 20.53700 | 35439 ft | 508 kts | 233° |
| 2026-05-05 14:08 | -33.45422 | 20.50457 | 34463 ft | 509 kts | 233° |
| 2026-05-05 14:08 | -33.47674 | 20.47221 | 33788 ft | 504 kts | 233° |
| 2026-05-05 14:08 | -33.49898 | 20.44024 | 33268 ft | 497 kts | 233° |
| 2026-05-05 14:08 | -33.52090 | 20.40871 | 32764 ft | 492 kts | 233° |
| 2026-05-05 14:09 | -33.54263 | 20.37739 | 32217 ft | 488 kts | 233° |
| 2026-05-05 14:09 | -33.56418 | 20.34631 | 31633 ft | 486 kts | 234° |
| 2026-05-05 14:09 | -33.58621 | 20.31578 | 31039 ft | 484 kts | 231° |
| 2026-05-05 14:09 | -33.60881 | 20.28613 | 30451 ft | 482 kts | 231° |
| 2026-05-05 14:10 | -33.63124 | 20.25676 | 30105 ft | 473 kts | 231° |
| 2026-05-05 14:10 | -33.65311 | 20.22807 | 29920 ft | 460 kts | 231° |
| 2026-05-05 14:10 | -33.66827 | 20.20814 | 29694 ft | 454 kts | 231° |
| 2026-05-05 14:10 | -33.68941 | 20.18025 | 29174 ft | 451 kts | 231° |
| 2026-05-05 14:11 | -33.71041 | 20.15251 | 28587 ft | 450 kts | 231° |
| 2026-05-05 14:11 | -33.73026 | 20.12623 | 28068 ft | 448 kts | 231° |
| 2026-05-05 14:11 | -33.74972 | 20.10045 | 27623 ft | 444 kts | 231° |
| 2026-05-05 14:11 | -33.76965 | 20.07401 | 27140 ft | 441 kts | 231° |
| 2026-05-05 14:12 | -33.79014 | 20.04681 | 26633 ft | 437 kts | 231° |
| 2026-05-05 14:12 | -33.81043 | 20.01983 | 26125 ft | 434 kts | 231° |
| 2026-05-05 14:12 | -33.83060 | 19.99300 | 25624 ft | 431 kts | 231° |
| 2026-05-05 14:12 | -33.85056 | 19.96643 | 25128 ft | 428 kts | 231° |
| 2026-05-05 14:13 | -33.87039 | 19.93999 | 24628 ft | 425 kts | 231° |
| 2026-05-05 14:13 | -33.89007 | 19.91374 | 24102 ft | 422 kts | 230° |
| 2026-05-05 14:13 | -33.90960 | 19.88766 | 23568 ft | 419 kts | 230° |
| 2026-05-05 14:13 | -33.92902 | 19.86172 | 23075 ft | 415 kts | 230° |
| 2026-05-05 14:14 | -33.94819 | 19.83609 | 22593 ft | 411 kts | 230° |
| 2026-05-05 14:14 | -33.96638 | 19.80991 | 22072 ft | 406 kts | 236° |
| 2026-05-05 14:14 | -33.98076 | 19.78100 | 21521 ft | 402 kts | 243° |
| 2026-05-05 14:14 | -33.99365 | 19.75138 | 21018 ft | 398 kts | 243° |
| 2026-05-05 14:15 | -34.00633 | 19.72195 | 20445 ft | 397 kts | 243° |
| 2026-05-05 14:15 | -34.01895 | 19.69262 | 19972 ft | 393 kts | 243° |
| 2026-05-05 14:15 | -34.03137 | 19.66373 | 19652 ft | 384 kts | 242° |
| 2026-05-05 14:15 | -34.04238 | 19.63520 | 19591 ft | 368 kts | 250° |
| 2026-05-05 14:16 | -34.04801 | 19.60591 | 19548 ft | 353 kts | 265° |
| 2026-05-05 14:16 | -34.04839 | 19.57705 | 19489 ft | 339 kts | 272° |
| 2026-05-05 14:16 | -34.04695 | 19.54901 | 19186 ft | 335 kts | 274° |
| 2026-05-05 14:16 | -34.04476 | 19.52104 | 18727 ft | 336 kts | 276° |
| 2026-05-05 14:17 | -34.04173 | 19.49328 | 18368 ft | 333 kts | 277° |
| 2026-05-05 14:17 | -34.03831 | 19.46579 | 17972 ft | 332 kts | 278° |
| 2026-05-05 14:17 | -34.03470 | 19.43850 | 17600 ft | 330 kts | 278° |
| 2026-05-05 14:17 | -34.03100 | 19.41142 | 17243 ft | 327 kts | 278° |
| 2026-05-05 14:18 | -34.02730 | 19.38450 | 16872 ft | 325 kts | 278° |
| 2026-05-05 14:18 | -34.02362 | 19.35787 | 16647 ft | 318 kts | 278° |
| 2026-05-05 14:18 | -34.02004 | 19.33205 | 16612 ft | 305 kts | 279° |
| 2026-05-05 14:18 | -34.01660 | 19.30725 | 16480 ft | 297 kts | 279° |
| 2026-05-05 14:19 | -34.01327 | 19.28284 | 16153 ft | 296 kts | 278° |
| 2026-05-05 14:19 | -34.01065 | 19.25838 | 15828 ft | 294 kts | 277° |
| 2026-05-05 14:19 | -34.00814 | 19.23403 | 15512 ft | 293 kts | 277° |
| 2026-05-05 14:19 | -34.00557 | 19.20978 | 15194 ft | 291 kts | 277° |
| 2026-05-05 14:20 | -34.00296 | 19.18572 | 14879 ft | 290 kts | 277° |
| 2026-05-05 14:20 | -34.00035 | 19.16174 | 14582 ft | 288 kts | 277° |
| 2026-05-05 14:20 | -33.99775 | 19.13797 | 14275 ft | 287 kts | 277° |
| 2026-05-05 14:20 | -33.99515 | 19.11423 | 13966 ft | 285 kts | 277° |
| 2026-05-05 14:21 | -33.99256 | 19.09059 | 13673 ft | 283 kts | 277° |
| 2026-05-05 14:21 | -33.98998 | 19.06715 | 13388 ft | 282 kts | 277° |
| 2026-05-05 14:21 | -33.98742 | 19.04384 | 13070 ft | 281 kts | 277° |
| 2026-05-05 14:21 | -33.98486 | 19.02063 | 12788 ft | 279 kts | 277° |
| 2026-05-05 14:22 | -33.98231 | 18.99759 | 12491 ft | 278 kts | 277° |
| 2026-05-05 14:22 | -33.97977 | 18.97458 | 12191 ft | 277 kts | 277° |
| 2026-05-05 14:22 | -33.97723 | 18.95170 | 11894 ft | 275 kts | 277° |
| 2026-05-05 14:22 | -33.97473 | 18.92916 | 11531 ft | 272 kts | 277° |
| 2026-05-05 14:23 | -33.97223 | 18.90668 | 11049 ft | 272 kts | 277° |
| 2026-05-05 14:23 | -33.96977 | 18.88419 | 10597 ft | 271 kts | 275° |
| 2026-05-05 14:23 | -33.97128 | 18.86166 | 10221 ft | 271 kts | 257° |
| 2026-05-05 14:23 | -33.97589 | 18.83992 | 9987 ft | 268 kts | 254° |
| 2026-05-05 14:24 | -33.98090 | 18.81843 | 9715 ft | 266 kts | 253° |
| 2026-05-05 14:24 | -33.98600 | 18.79706 | 9428 ft | 265 kts | 249° |
| 2026-05-05 14:24 | -33.99568 | 18.77852 | 9109 ft | 263 kts | 222° |
| 2026-05-05 14:24 | -34.01133 | 18.76766 | 8779 ft | 260 kts | 194° |
| 2026-05-05 14:25 | -34.02919 | 18.76642 | 8519 ft | 255 kts | 172° |
| 2026-05-05 14:25 | -34.04667 | 18.77023 | 8490 ft | 257 kts | 166° |
| 2026-05-05 14:25 | -34.06400 | 18.77550 | 8420 ft | 254 kts | 164° |
| 2026-05-05 14:25 | -34.08111 | 18.78112 | 8134 ft | 255 kts | 164° |
| 2026-05-05 14:26 | -34.09810 | 18.78678 | 7824 ft | 251 kts | 163° |
| 2026-05-05 14:26 | -34.11524 | 18.78995 | 7433 ft | 249 kts | 183° |
| 2026-05-05 14:26 | -34.13162 | 18.78358 | 6999 ft | 250 kts | 211° |
| 2026-05-05 14:26 | -34.14348 | 18.76850 | 6600 ft | 249 kts | 240° |
| 2026-05-05 14:27 | -34.14927 | 18.74902 | 6220 ft | 247 kts | 255° |
| 2026-05-05 14:27 | -34.15303 | 18.72898 | 5877 ft | 245 kts | 258° |
| 2026-05-05 14:27 | -34.15642 | 18.70892 | 5508 ft | 244 kts | 259° |
| 2026-05-05 14:27 | -34.15800 | 18.68911 | 5378 ft | 231 kts | 277° |
| 2026-05-05 14:28 | -34.15253 | 18.67192 | 5014 ft | 214 kts | 303° |
| 2026-05-05 14:28 | -34.14141 | 18.66013 | 4119 ft | 219 kts | 332° |
| 2026-05-05 14:28 | -34.12765 | 18.65364 | 3609 ft | 208 kts | 342° |
| 2026-05-05 14:28 | -34.11407 | 18.64895 | 3112 ft | 200 kts | 344° |
| 2026-05-05 14:29 | -34.10087 | 18.64437 | 2629 ft | 194 kts | 345° |
| 2026-05-05 14:29 | -34.08816 | 18.64040 | 2272 ft | 183 kts | 346° |
| 2026-05-05 14:29 | -34.07618 | 18.63675 | 1999 ft | 173 kts | 346° |
| 2026-05-05 14:29 | -34.06478 | 18.63313 | 1727 ft | 160 kts | 345° |
| 2026-05-05 14:30 | -34.05462 | 18.63000 | 1491 ft | 139 kts | 346° |
| 2026-05-05 14:30 | -34.04552 | 18.62716 | 1307 ft | 132 kts | 346° |
| 2026-05-05 14:30 | -34.03675 | 18.62423 | 1146 ft | 129 kts | 346° |
| 2026-05-05 14:30 | -34.02803 | 18.62165 | 983 ft | 128 kts | 347° |
| 2026-05-05 14:31 | -34.01941 | 18.61884 | 826 ft | 128 kts | 346° |
| 2026-05-05 14:31 | -34.01076 | 18.61609 | 666 ft | 128 kts | 347° |
| 2026-05-05 14:31 | -34.00208 | 18.61341 | 495 ft | 129 kts | 347° |
| 2026-05-05 14:31 | -33.99336 | 18.61061 | 326 ft | 129 kts | 347° |
| 2026-05-05 14:32 | -33.98458 | 18.60790 | 174 ft | 129 kts | 347° |
| 2026-05-05 14:32 | -33.97692 | 18.60550 | 164 ft | 92 kts | 346° |
| 2026-05-05 14:32 | -33.97247 | 18.60411 | 164 ft | 36 kts | 343° |
| 2026-05-05 14:32 | -33.97119 | 18.60293 | 164 ft | 13 kts | 298° |
| 2026-05-05 14:33 | -33.97100 | 18.60235 | 164 ft | 7 kts | 289° |
| 2026-05-05 14:33 | -33.97085 | 18.60173 | 164 ft | 3 kts | 284° |
| 2026-05-05 14:33 | -33.97074 | 18.60124 | 164 ft | 8 kts | 284° |
| 2026-05-05 14:33 | -33.97058 | 18.60054 | 164 ft | 8 kts | 285° |
| 2026-05-05 14:34 | -33.97047 | 18.59988 | 164 ft | 8 kts | 270° |
| 2026-05-05 14:34 | -33.97056 | 18.59925 | 164 ft | 7 kts | 256° |
| 2026-05-05 14:34 | -33.97063 | 18.59893 | 164 ft | 0 kts | 255° |
| 2026-05-05 14:34 | -33.97066 | 18.59882 | 164 ft | 1 kts | 255° |
| 2026-05-05 14:35 | -33.97066 | 18.59881 | 164 ft | 0 kts | 255° |